createdAt,value
2022-10-05T00:01:55.106Z,100947.84
2022-10-05T00:04:23.949Z,100942.16
2022-10-05T00:06:50.500Z,100931.69
2022-10-05T00:09:20.894Z,100930.50
2022-10-05T00:11:49.076Z,100923.16
2022-10-05T00:14:40.767Z,100929.78
2022-10-05T00:17:10.492Z,100928.22
2022-10-05T00:19:38.457Z,100930.41
2022-10-05T00:22:14.492Z,100926.50
2022-10-05T00:24:41.299Z,100927.47
2022-10-05T00:27:35.198Z,100922.25
2022-10-05T00:30:13.284Z,100921.44
2022-10-05T00:32:39.967Z,100923.22
2022-10-05T00:35:07.232Z,100929.63
2022-10-05T00:37:33.944Z,100924.47
2022-10-05T00:40:01.033Z,100927.19
2022-10-05T00:43:06.356Z,100932.59
2022-10-05T00:45:41.649Z,100936.19
2022-10-05T00:48:20.721Z,100936.19
2022-10-05T00:51:08.827Z,100937.69
2022-10-05T00:53:50.732Z,100929.63
2022-10-05T00:56:26.680Z,100919.94
2022-10-05T00:59:25.316Z,100921.41
2022-10-05T01:02:08.986Z,100923.16
2022-10-05T01:04:59.289Z,100923.81
2022-10-05T01:07:26.000Z,100935.59
2022-10-05T01:10:16.435Z,100928.38
2022-10-05T01:13:20.251Z,100928.84
2022-10-05T01:15:58.102Z,100923.53
2022-10-05T01:18:49.843Z,100926.09
2022-10-05T01:21:25.604Z,100923.16
2022-10-05T01:24:10.541Z,100924.94
2022-10-05T01:27:15.893Z,100933.84
2022-10-05T01:29:42.496Z,100934.34
2022-10-05T01:32:18.783Z,100928.41
2022-10-05T01:34:58.491Z,100917.91
2022-10-05T01:37:58.830Z,100921.00
2022-10-05T01:40:34.249Z,100929.59
2022-10-05T01:43:25.992Z,100922.50
2022-10-05T01:45:59.713Z,100924.94
2022-10-05T01:48:46.813Z,100930.44
2022-10-05T01:51:42.920Z,100929.50
2022-10-05T01:54:30.779Z,100923.53
2022-10-05T01:57:20.117Z,100919.63
2022-10-05T02:00:07.665Z,100919.78
2022-10-05T02:02:48.922Z,100913.84
2022-10-05T02:05:24.203Z,100906.72
2022-10-05T02:08:14.271Z,100914.59
2022-10-05T02:10:59.083Z,100912.81
2022-10-05T02:13:48.772Z,100919.91
2022-10-05T02:16:33.796Z,100908.53
2022-10-05T02:19:26.151Z,100902.09
2022-10-05T02:22:03.673Z,100906.31
2022-10-05T02:24:38.448Z,100899.59
2022-10-05T02:27:08.518Z,100903.94
2022-10-05T02:29:39.848Z,100899.09
2022-10-05T02:32:24.026Z,100896.25
2022-10-05T02:34:51.020Z,100893.03
2022-10-05T02:37:29.956Z,100885.50
2022-10-05T02:40:23.455Z,100881.13
2022-10-05T02:43:14.990Z,100874.94
2022-10-05T02:45:47.767Z,100867.97
2022-10-05T02:48:35.943Z,100857.28
2022-10-05T02:51:21.740Z,100855.78
2022-10-05T02:54:03.918Z,100849.91
2022-10-05T02:56:58.306Z,100848.00
2022-10-05T02:59:37.364Z,100845.59
2022-10-05T03:02:18.547Z,100838.25
2022-10-05T03:05:10.900Z,100844.00
2022-10-05T03:07:48.844Z,100834.50
2022-10-05T03:10:25.006Z,100853.97
2022-10-05T03:12:58.503Z,100852.53
2022-10-05T03:16:02.638Z,100863.53
2022-10-05T03:19:03.998Z,100861.41
2022-10-05T03:21:59.010Z,100868.19
2022-10-05T03:24:50.742Z,100866.41
2022-10-05T03:27:23.220Z,100859.91
2022-10-05T03:30:16.340Z,100848.53
2022-10-05T03:32:58.762Z,100847.38
2022-10-05T03:35:34.627Z,100844.38
2022-10-05T03:38:17.969Z,100852.00
2022-10-05T03:41:04.063Z,100849.03
2022-10-05T03:43:45.543Z,100835.09
2022-10-05T03:46:55.465Z,100829.28
2022-10-05T03:49:42.355Z,100821.53
2022-10-05T03:52:16.220Z,100829.97
2022-10-05T03:55:22.835Z,100820.19
2022-10-05T03:57:54.574Z,100825.19
2022-10-05T04:00:25.962Z,100825.13
2022-10-05T04:03:16.893Z,100826.75
2022-10-05T04:06:10.510Z,100829.41
2022-10-05T04:08:48.109Z,100825.56
2022-10-05T04:11:27.871Z,100828.78
2022-10-05T04:14:00.950Z,100828.94
2022-10-05T04:16:34.924Z,100819.75
2022-10-05T04:19:10.962Z,100823.81
2022-10-05T04:21:46.672Z,100821.78
2022-10-05T04:24:32.453Z,100812.38
2022-10-05T04:27:07.912Z,100817.22
2022-10-05T04:29:57.463Z,100818.72
2022-10-05T04:32:36.223Z,100818.81
2022-10-05T04:35:41.732Z,100818.75
2022-10-05T04:38:41.130Z,100809.56
2022-10-05T04:41:38.798Z,100807.25
2022-10-05T04:44:24.499Z,100796.00
2022-10-05T04:47:25.636Z,100805.56
2022-10-05T04:50:16.869Z,100797.91
2022-10-05T04:53:09.234Z,100794.47
2022-10-05T04:55:54.527Z,100783.22
2022-10-05T04:58:36.734Z,100779.78
2022-10-05T05:01:17.736Z,100775.41
2022-10-05T05:04:22.502Z,100773.44
2022-10-05T05:07:15.696Z,100766.78
2022-10-05T05:10:25.072Z,100783.66
2022-10-05T05:13:00.696Z,100785.84
2022-10-05T05:15:51.653Z,100789.44
2022-10-05T05:18:33.624Z,100786.81
2022-10-05T05:21:06.847Z,100781.06
2022-10-05T05:23:40.368Z,100791.78
2022-10-05T05:26:14.727Z,100789.13
2022-10-05T05:29:14.220Z,100788.22
2022-10-05T05:31:49.372Z,100783.22
2022-10-05T05:34:28.092Z,100793.94
2022-10-05T05:37:12.541Z,100788.13
2022-10-05T05:40:01.064Z,100782.09
2022-10-05T05:42:49.377Z,100782.78
2022-10-05T05:45:42.458Z,100791.91
2022-10-05T05:48:38.539Z,100791.59
2022-10-05T05:51:14.725Z,100793.59
2022-10-05T05:53:48.106Z,100797.03
2022-10-05T05:56:22.144Z,100804.69
2022-10-05T05:58:54.697Z,100808.97
2022-10-05T06:01:33.607Z,100792.75
2022-10-05T06:04:14.802Z,100797.00
2022-10-05T06:06:51.917Z,100805.13
2022-10-05T06:09:33.834Z,100815.78
2022-10-05T06:12:29.960Z,100804.59
2022-10-05T06:14:59.288Z,100815.38
2022-10-05T06:17:45.163Z,100810.72
2022-10-05T06:20:24.274Z,100815.50
2022-10-05T06:22:52.488Z,100823.97
2022-10-05T06:25:42.332Z,100822.09
2022-10-05T06:28:11.394Z,100822.09
2022-10-05T06:31:09.366Z,100814.16
2022-10-05T06:33:53.897Z,100820.19
2022-10-05T06:36:35.062Z,100820.19
2022-10-05T06:39:15.770Z,100811.94
2022-10-05T06:41:53.359Z,100817.63
2022-10-05T06:44:34.428Z,100811.75
2022-10-05T06:47:37.944Z,100822.59
2022-10-05T06:50:36.284Z,100821.34
2022-10-05T06:53:27.129Z,100810.63
2022-10-05T06:56:08.848Z,100802.97
2022-10-05T06:58:45.409Z,100822.84
2022-10-05T07:01:21.074Z,100820.56
2022-10-05T07:04:24.165Z,100816.31
2022-10-05T07:07:19.744Z,100816.56
2022-10-05T07:10:10.732Z,100818.72
2022-10-05T07:12:43.858Z,100823.16
2022-10-05T07:15:25.528Z,100807.38
2022-10-05T07:18:16.952Z,100814.56
2022-10-05T07:20:52.765Z,100803.44
2022-10-05T07:23:59.367Z,100798.13
2022-10-05T07:26:38.376Z,100820.38
2022-10-05T07:29:08.122Z,100813.03
2022-10-05T07:31:43.141Z,100806.97
2022-10-05T07:34:22.386Z,100807.84
2022-10-05T07:37:18.096Z,100806.56
2022-10-05T07:40:08.321Z,100808.78
2022-10-05T07:42:53.565Z,100809.13
2022-10-05T07:45:33.717Z,100807.88
2022-10-05T07:48:13.858Z,100812.78
2022-10-05T07:51:24.375Z,100813.13
2022-10-05T07:54:16.096Z,100801.22
2022-10-05T07:56:54.449Z,100808.28
2022-10-05T07:59:34.265Z,100802.00
2022-10-05T08:02:33.036Z,100797.75
2022-10-05T08:05:16.423Z,100794.25
2022-10-05T08:07:43.227Z,100794.81
2022-10-05T08:10:41.746Z,100797.19
2022-10-05T08:13:29.630Z,100794.00
2022-10-05T08:16:03.217Z,100781.44
2022-10-05T08:18:44.807Z,100781.28
2022-10-05T08:21:16.180Z,100779.94
2022-10-05T08:23:58.194Z,100774.53
2022-10-05T08:26:33.851Z,100774.31
2022-10-05T08:29:21.826Z,100777.53
2022-10-05T08:31:53.248Z,100778.47
2022-10-05T08:34:49.269Z,100781.22
2022-10-05T08:37:21.953Z,100776.28
2022-10-05T08:40:21.402Z,100783.81
2022-10-05T08:43:12.317Z,100776.41
2022-10-05T08:45:45.454Z,100780.22
2022-10-05T08:48:31.120Z,100774.34
2022-10-05T08:51:35.016Z,100775.19
2022-10-05T08:54:26.548Z,100782.31
2022-10-05T08:57:11.837Z,100789.50
2022-10-05T09:00:10.554Z,100806.84
2022-10-05T09:03:12.603Z,100798.16
2022-10-05T09:05:42.290Z,100801.53
2022-10-05T09:08:11.969Z,100797.38
2022-10-05T09:10:59.601Z,100801.19
2022-10-05T09:13:29.224Z,100799.47
2022-10-05T09:16:04.940Z,100800.03
2022-10-05T09:19:08.988Z,100803.50
2022-10-05T09:21:56.620Z,100800.09
2022-10-05T09:24:44.999Z,100796.78
2022-10-05T09:27:19.998Z,100795.59
2022-10-05T09:30:14.400Z,100801.25
2022-10-05T09:33:14.152Z,100792.56
2022-10-05T09:35:46.799Z,100792.41
2022-10-05T09:38:31.870Z,100785.00
2022-10-05T09:41:10.381Z,100793.66
2022-10-05T09:43:55.425Z,100786.38
2022-10-05T09:46:22.270Z,100796.03
2022-10-05T09:49:20.240Z,100789.91
2022-10-05T09:52:26.110Z,100796.88
2022-10-05T09:54:57.020Z,100782.53
2022-10-05T09:57:49.371Z,100787.78
2022-10-05T10:00:40.868Z,100787.78
2022-10-05T10:03:10.391Z,100790.00
2022-10-05T10:06:01.664Z,100794.75
2022-10-05T10:08:46.352Z,100801.38
2022-10-05T10:11:15.986Z,100787.34
2022-10-05T10:14:23.957Z,100783.09
2022-10-05T10:17:02.969Z,100786.25
2022-10-05T10:19:48.233Z,100784.41
2022-10-05T10:22:38.537Z,100787.78
2022-10-05T10:25:19.273Z,100798.41
2022-10-05T10:28:13.321Z,100798.59
2022-10-05T10:31:21.667Z,100808.53
2022-10-05T10:34:25.898Z,100804.00
2022-10-05T10:37:33.693Z,100796.94
2022-10-05T10:40:31.533Z,100801.38
2022-10-05T10:43:17.023Z,100801.19
2022-10-05T10:45:46.615Z,100793.41
2022-10-05T10:48:19.119Z,100801.03
2022-10-05T10:51:00.647Z,100796.88
2022-10-05T10:54:03.652Z,100808.03
2022-10-05T10:57:04.528Z,100793.66
2022-10-05T10:59:52.936Z,100799.53
2022-10-05T11:02:37.280Z,100792.25
2022-10-05T11:05:23.081Z,100799.09
2022-10-05T11:08:25.721Z,100795.16
2022-10-05T11:10:55.341Z,100794.59
2022-10-05T11:13:43.912Z,100787.16
2022-10-05T11:16:24.983Z,100788.19
2022-10-05T11:19:16.705Z,100786.41
2022-10-05T11:21:55.113Z,100782.00
2022-10-05T11:24:47.917Z,100769.19
2022-10-05T11:27:14.528Z,100775.78
2022-10-05T11:29:59.307Z,100764.94
2022-10-05T11:32:56.250Z,100762.81
2022-10-05T11:35:37.001Z,100768.03
2022-10-05T11:38:34.309Z,100766.03
2022-10-05T11:41:02.244Z,100767.09
2022-10-05T11:43:43.922Z,100767.50
2022-10-05T11:46:16.507Z,100758.88
2022-10-05T11:49:00.524Z,100768.38
2022-10-05T11:51:49.161Z,100750.41
2022-10-05T11:54:29.548Z,100752.56
2022-10-05T11:57:05.607Z,100755.66
2022-10-05T11:59:53.718Z,100745.19
2022-10-05T12:02:53.184Z,100750.75
2022-10-05T12:05:32.484Z,100736.47
2022-10-05T12:08:36.408Z,100732.44
2022-10-05T12:11:11.501Z,100733.47
2022-10-05T12:14:27.507Z,100731.09
2022-10-05T12:17:20.189Z,100738.00
2022-10-05T12:20:03.736Z,100726.88
2022-10-05T12:23:11.809Z,100733.56
2022-10-05T12:25:56.466Z,100722.56
2022-10-05T12:28:35.636Z,100723.44
2022-10-05T12:31:23.411Z,100723.88
2022-10-05T12:34:16.537Z,100720.22
2022-10-05T12:37:05.398Z,100715.09
2022-10-05T12:39:47.656Z,100715.69
2022-10-05T12:42:41.884Z,100713.78
2022-10-05T12:45:39.688Z,100710.00
2022-10-05T12:48:25.106Z,100704.59
2022-10-05T12:51:08.872Z,100708.03
2022-10-05T12:53:53.558Z,100696.38
2022-10-05T12:56:34.659Z,100695.69
2022-10-05T12:59:15.676Z,100695.22
2022-10-05T13:01:55.374Z,100688.13
2022-10-05T13:04:33.977Z,100684.81
2022-10-05T13:07:09.557Z,100677.78
2022-10-05T13:09:56.217Z,100676.72
2022-10-05T13:12:47.979Z,100671.50
2022-10-05T13:15:26.835Z,100681.97
2022-10-05T13:18:16.582Z,100677.19
2022-10-05T13:20:51.686Z,100672.59
2022-10-05T13:23:40.525Z,100662.53
2022-10-05T13:26:09.913Z,100669.69
2022-10-05T13:28:52.496Z,100660.06
2022-10-05T13:31:24.729Z,100652.25
2022-10-05T13:34:01.184Z,100653.16
2022-10-05T13:36:42.285Z,100646.00
2022-10-05T13:39:26.819Z,100661.84
2022-10-05T13:42:06.261Z,100652.63
2022-10-05T13:44:32.968Z,100656.78
2022-10-05T13:47:12.967Z,100642.63
2022-10-05T13:50:24.348Z,100648.19
2022-10-05T13:53:05.430Z,100637.88
2022-10-05T13:55:38.128Z,100634.34
2022-10-05T13:58:19.412Z,100630.28
2022-10-05T14:01:00.267Z,100630.41
2022-10-05T14:03:36.026Z,100634.75
2022-10-05T14:06:12.285Z,100627.03
2022-10-05T14:08:52.700Z,100618.38
2022-10-05T14:11:34.896Z,100617.25
2022-10-05T14:14:04.457Z,100623.56
2022-10-05T14:16:33.447Z,100621.16
2022-10-05T14:19:06.330Z,100615.31
2022-10-05T14:21:47.320Z,100606.00
2022-10-05T14:24:45.272Z,100600.69
2022-10-05T14:27:23.978Z,100592.84
2022-10-05T14:30:14.045Z,100591.25
2022-10-05T14:32:51.520Z,100590.22
2022-10-05T14:35:24.140Z,100592.56
2022-10-05T14:37:57.598Z,100572.34
2022-10-05T14:40:26.460Z,100569.63
2022-10-05T14:42:53.650Z,100560.69
2022-10-05T14:45:25.862Z,100564.81
2022-10-05T14:48:12.862Z,100550.34
2022-10-05T14:50:52.993Z,100559.16
2022-10-05T14:53:22.641Z,100553.50
2022-10-05T14:56:01.897Z,100549.25
2022-10-05T14:59:19.968Z,100532.38
2022-10-05T15:01:57.600Z,100534.97
2022-10-05T15:04:43.081Z,100538.34
2022-10-05T15:07:17.913Z,100529.13
2022-10-05T15:10:02.520Z,100532.69
2022-10-05T15:12:38.362Z,100533.03
2022-10-05T15:15:25.458Z,100527.19
2022-10-05T15:17:59.473Z,100534.25
2022-10-05T15:20:46.480Z,100528.03
2022-10-05T15:23:24.910Z,100533.25
2022-10-05T15:26:01.429Z,100535.78
2022-10-05T15:28:49.818Z,100538.94
2022-10-05T15:31:25.908Z,100531.31
2022-10-05T15:34:02.955Z,100525.91
2022-10-05T15:37:07.823Z,100523.03
2022-10-05T15:39:44.433Z,100515.06
2022-10-05T15:42:18.016Z,100515.91
2022-10-05T15:45:19.143Z,100520.88
2022-10-05T15:48:18.001Z,100515.06
2022-10-05T15:50:57.014Z,100507.78
2022-10-05T15:53:35.788Z,100513.16
2022-10-05T15:56:11.404Z,100509.22
2022-10-05T15:58:53.194Z,100509.72
2022-10-05T16:01:31.873Z,100505.81
2022-10-05T16:04:05.684Z,100496.31
2022-10-05T16:07:05.757Z,100513.25
2022-10-05T16:10:03.413Z,100513.16
2022-10-05T16:12:51.317Z,100510.97
2022-10-05T16:15:42.917Z,100503.63
2022-10-05T16:18:34.016Z,100508.53
2022-10-05T16:21:03.516Z,100503.78
2022-10-05T16:23:40.247Z,100499.66
2022-10-05T16:26:25.541Z,100506.97
2022-10-05T16:28:57.781Z,100511.50
2022-10-05T16:31:34.684Z,100506.84
2022-10-05T16:34:09.422Z,100499.94
2022-10-05T16:36:55.934Z,100499.69
2022-10-05T16:39:50.048Z,100504.44
2022-10-05T16:42:16.700Z,100500.31
2022-10-05T16:44:49.157Z,100502.88
2022-10-05T16:47:42.545Z,100493.03
2022-10-05T16:50:21.511Z,100499.41
2022-10-05T16:52:55.544Z,100498.84
2022-10-05T16:55:31.188Z,100502.66
2022-10-05T16:58:01.710Z,100500.22
2022-10-05T17:00:28.331Z,100496.66
2022-10-05T17:03:04.687Z,100501.59
2022-10-05T17:06:08.581Z,100509.03
2022-10-05T17:09:06.492Z,100508.19
2022-10-05T17:11:56.384Z,100502.84
2022-10-05T17:14:35.226Z,100506.66
2022-10-05T17:17:17.414Z,100497.31
2022-10-05T17:19:50.809Z,100499.63
2022-10-05T17:22:50.816Z,100501.13
2022-10-05T17:25:35.135Z,100500.16
2022-10-05T17:28:23.225Z,100506.56
2022-10-05T17:30:58.879Z,100511.09
2022-10-05T17:33:29.048Z,100515.22
2022-10-05T17:36:06.507Z,100522.53
2022-10-05T17:38:36.044Z,100526.72
2022-10-05T17:41:18.924Z,100523.09
2022-10-05T17:44:24.941Z,100528.88
2022-10-05T17:46:52.875Z,100534.72
2022-10-05T17:49:40.574Z,100529.13
2022-10-05T17:52:45.175Z,100540.75
2022-10-05T17:55:25.753Z,100543.25
2022-10-05T17:57:53.162Z,100539.78
2022-10-05T18:00:25.859Z,100546.84
2022-10-05T18:02:57.478Z,100554.81
2022-10-05T18:05:28.844Z,100553.69
2022-10-05T18:08:15.713Z,100565.34
2022-10-05T18:11:12.532Z,100553.56
2022-10-05T18:13:50.094Z,100560.38
2022-10-05T18:16:54.540Z,100556.72
2022-10-05T18:19:22.417Z,100553.72
2022-10-05T18:22:17.835Z,100568.38
2022-10-05T18:25:10.304Z,100567.50
2022-10-05T18:27:51.829Z,100571.59
2022-10-05T18:30:24.227Z,100567.38
2022-10-05T18:33:20.386Z,100569.38
2022-10-05T18:35:56.345Z,100568.25
2022-10-05T18:38:41.606Z,100566.16
2022-10-05T18:41:14.218Z,100575.34
2022-10-05T18:43:49.140Z,100567.47
2022-10-05T18:46:26.400Z,100573.06
2022-10-05T18:49:02.041Z,100580.50
2022-10-05T18:51:55.748Z,100571.59
2022-10-05T18:54:57.674Z,100572.03
2022-10-05T18:57:41.322Z,100575.97
2022-10-05T19:00:16.255Z,100580.06
2022-10-05T19:03:10.895Z,100586.66
2022-10-05T19:06:03.408Z,100580.00
2022-10-05T19:08:53.138Z,100576.38
2022-10-05T19:11:47.165Z,100579.91
2022-10-05T19:14:51.977Z,100576.06
2022-10-05T19:17:26.953Z,100579.38
2022-10-05T19:20:13.010Z,100596.09
2022-10-05T19:23:02.157Z,100586.53
2022-10-05T19:25:38.025Z,100599.13
2022-10-05T19:28:18.125Z,100599.34
2022-10-05T19:31:01.111Z,100588.78
2022-10-05T19:33:55.796Z,100588.44
2022-10-05T19:36:34.606Z,100596.03
2022-10-05T19:39:12.320Z,100590.72
2022-10-05T19:42:10.463Z,100594.59
2022-10-05T19:44:49.161Z,100595.69
2022-10-05T19:47:24.515Z,100603.94
2022-10-05T19:49:56.762Z,100595.28
2022-10-05T19:52:48.991Z,100604.56
2022-10-05T19:55:18.840Z,100607.91
2022-10-05T19:57:47.812Z,100604.81
2022-10-05T20:00:26.253Z,100607.25
2022-10-05T20:03:17.661Z,100610.34
2022-10-05T20:05:45.080Z,100610.63
2022-10-05T20:08:19.741Z,100609.63
2022-10-05T20:11:13.712Z,100613.91
2022-10-05T20:13:53.352Z,100614.97
2022-10-05T20:16:50.161Z,100612.63
2022-10-05T20:19:50.773Z,100615.63
2022-10-05T20:22:39.566Z,100622.66
2022-10-05T20:25:07.550Z,100616.91
2022-10-05T20:27:37.255Z,100612.31
2022-10-05T20:30:05.444Z,100618.38
2022-10-05T20:32:32.053Z,100620.63
2022-10-05T20:34:58.682Z,100618.53
2022-10-05T20:37:25.377Z,100606.63
2022-10-05T20:39:52.224Z,100619.13
2022-10-05T20:42:20.204Z,100617.75
2022-10-05T20:44:46.986Z,100618.59
2022-10-05T20:47:13.890Z,100629.72
2022-10-05T20:49:44.482Z,100631.44
2022-10-05T20:52:15.128Z,100627.16
2022-10-05T20:54:42.230Z,100649.63
2022-10-05T20:57:09.566Z,100647.06
2022-10-05T20:59:36.501Z,100656.66
2022-10-05T21:02:03.824Z,100660.72
2022-10-05T21:04:40.829Z,100665.88
2022-10-05T21:07:08.374Z,100666.06
2022-10-05T21:09:37.951Z,100675.19
2022-10-05T21:12:04.807Z,100665.00
2022-10-05T21:14:34.371Z,100668.00
2022-10-05T21:17:02.152Z,100668.88
2022-10-05T21:19:29.583Z,100661.59
2022-10-05T21:21:59.224Z,100680.41
2022-10-05T21:24:26.208Z,100689.19
2022-10-05T21:26:55.255Z,100689.50
2022-10-05T21:29:22.185Z,100698.94
2022-10-05T21:31:48.816Z,100694.84
2022-10-05T21:34:15.808Z,100704.50
2022-10-05T21:36:42.419Z,100712.94
2022-10-05T21:39:08.996Z,100714.63
2022-10-05T21:41:35.579Z,100712.28
2022-10-05T21:44:02.267Z,100706.50
2022-10-05T21:46:29.599Z,100710.38
2022-10-05T21:48:56.221Z,100721.50
2022-10-05T21:51:25.450Z,100720.63
2022-10-05T21:53:56.691Z,100706.09
2022-10-05T21:56:28.291Z,100716.81
2022-10-05T21:58:55.206Z,100717.66
2022-10-05T22:01:23.040Z,100725.09
2022-10-05T22:03:50.041Z,100723.00
2022-10-05T22:06:16.635Z,100723.00
2022-10-05T22:08:43.384Z,100724.50
2022-10-05T22:11:12.981Z,100721.47
2022-10-05T22:13:48.639Z,100728.03
2022-10-05T22:16:18.337Z,100724.28
2022-10-05T22:18:45.251Z,100726.84
2022-10-05T22:21:13.821Z,100722.34
2022-10-05T22:23:42.216Z,100725.78
2022-10-05T22:26:12.920Z,100717.03
2022-10-05T22:28:40.114Z,100718.31
2022-10-05T22:31:09.283Z,100716.16
2022-10-05T22:33:37.079Z,100720.44
2022-10-05T22:36:05.583Z,100720.22
2022-10-05T22:38:32.386Z,100730.28
2022-10-05T22:40:59.199Z,100729.13
2022-10-05T22:43:29.020Z,100735.84
2022-10-05T22:45:56.221Z,100731.75
2022-10-05T22:48:23.001Z,100730.22
2022-10-05T22:50:49.713Z,100739.56
2022-10-05T22:53:16.551Z,100743.97
2022-10-05T22:55:43.166Z,100742.84
2022-10-05T22:58:09.885Z,100740.09
2022-10-05T23:00:56.849Z,100736.66
2022-10-05T23:03:23.439Z,100750.53
2022-10-05T23:05:56.837Z,100759.81
2022-10-05T23:08:23.451Z,100759.81
2022-10-05T23:10:50.003Z,100758.75
2022-10-05T23:13:16.721Z,100765.16
2022-10-05T23:15:43.779Z,100759.19
2022-10-05T23:18:12.178Z,100761.09
2022-10-05T23:20:40.231Z,100756.81
2022-10-05T23:23:06.838Z,100759.16
2022-10-05T23:25:33.483Z,100752.84
2022-10-05T23:28:02.679Z,100754.47
2022-10-05T23:30:29.597Z,100761.22
2022-10-05T23:32:56.316Z,100764.28
2022-10-05T23:35:23.003Z,100758.28
2022-10-05T23:37:49.600Z,100767.03
2022-10-05T23:40:16.262Z,100766.34
2022-10-05T23:42:42.938Z,100768.38
2022-10-05T23:45:11.509Z,100772.34
2022-10-05T23:47:39.544Z,100776.28
2022-10-05T23:50:07.319Z,100785.72
2022-10-05T23:52:34.944Z,100791.69
2022-10-05T23:55:04.031Z,100796.81
2022-10-05T23:57:30.988Z,100787.03
2022-10-05T23:59:57.643Z,100799.19
